Time;durP1;ratioP1;P1;durP2;ratioP2;P2;SDS_P1;SDS_P2;PMS_P1;PMS_P2;Temp;Humidity;BMP_temperature;BMP_pressure;BME280_temperature;BME280_humidity;BME280_pressure;Samples;Min_cycle;Max_cycle;Signal;HPM_P1;HPM_P2
2023/04/30 00:00:48;;;;;;;;;;;8.40;99.90;;;;;;5047493;28;19913;-66
2023/04/30 00:03:13;;;;;;;;;;;8.40;99.90;;;;;;5045029;28;20003;-66
2023/04/30 00:05:39;;;;;;;;;;;8.40;99.90;;;;;;5048091;28;20015;-65
2023/04/30 00:08:05;;;;;;;;;;;8.40;99.90;;;;;;5044099;28;19966;-65
2023/04/30 00:10:30;;;;;;;;;;;8.40;99.90;;;;;;5045927;28;19917;-65
2023/04/30 00:12:56;;;;;;;;;;;8.40;99.90;;;;;;5044998;28;19920;-65
2023/04/30 00:15:21;;;;;;;;;;;8.40;99.90;;;;;;5044680;28;19913;-64
2023/04/30 00:17:47;;;;;;;;;;;8.40;99.90;;;;;;5052881;28;19967;-64
2023/04/30 00:20:12;;;;;;;;;;;8.30;99.90;;;;;;5048856;28;20142;-64
2023/04/30 00:22:38;;;;;;;;;;;8.30;99.90;;;;;;5047975;28;20266;-66
2023/04/30 00:25:04;;;;;;;;;;;8.40;99.90;;;;;;5036999;28;19913;-66
2023/04/30 00:27:30;;;;;;;;;;;8.40;99.90;;;;;;5045357;28;19913;-66
2023/04/30 00:29:56;;;;;;;;;;;8.40;99.90;;;;;;5048678;28;19913;-65
2023/04/30 00:32:22;;;;;;;;;;;8.40;99.90;;;;;;5048540;28;19912;-66
2023/04/30 00:34:47;;;;;;;;;;;8.40;99.90;;;;;;5049462;28;20288;-65
2023/04/30 00:37:13;;;;;;;;;;;8.30;99.90;;;;;;5050675;28;19913;-66
2023/04/30 00:39:38;;;;;;;;;;;8.30;99.90;;;;;;5052308;28;20319;-65
2023/04/30 00:42:04;;;;;;;;;;;8.30;99.90;;;;;;5051379;28;19987;-65
2023/04/30 00:44:29;;;;;;;;;;;8.30;99.90;;;;;;5050460;28;20368;-65
2023/04/30 00:46:55;;;;;;;;;;;8.30;99.90;;;;;;5052534;28;19917;-65
2023/04/30 00:49:21;;;;;;;;;;;8.30;99.90;;;;;;5050364;28;19916;-65
2023/04/30 00:51:46;;;;;;;;;;;8.30;99.90;;;;;;5051775;28;19995;-66
2023/04/30 00:54:12;;;;;;;;;;;8.20;99.90;;;;;;5049968;28;19999;-64
2023/04/30 00:56:37;;;;;;;;;;;8.10;99.90;;;;;;5051820;28;19912;-65
2023/04/30 00:59:03;;;;;;;;;;;8.10;99.90;;;;;;5049667;28;19920;-65
2023/04/30 01:01:28;;;;;;;;;;;8.00;99.90;;;;;;5048233;28;20392;-65
2023/04/30 01:03:54;;;;;;;;;;;8.10;99.90;;;;;;5049612;28;19913;-64
2023/04/30 01:06:20;;;;;;;;;;;8.00;99.90;;;;;;5049101;28;19999;-64
2023/04/30 01:08:46;;;;;;;;;;;8.00;99.90;;;;;;5050821;28;19909;-67
2023/04/30 01:11:19;;;;;;;;;;;7.90;99.90;;;;;;5031418;28;20353;-65
2023/04/30 01:13:51;;;;;;;;;;;7.80;99.90;;;;;;5048030;28;19913;-65
2023/04/30 01:16:20;;;;;;;;;;;7.70;99.90;;;;;;5046968;28;20292;-65
2023/04/30 01:19:00;;;;;;;;;;;7.70;99.90;;;;;;5051806;28;19942;-65
2023/04/30 01:21:28;;;;;;;;;;;7.70;99.90;;;;;;5047837;28;19917;-65
2023/04/30 01:24:05;;;;;;;;;;;7.80;99.90;;;;;;5049662;28;19912;-66
2023/04/30 01:26:49;;;;;;;;;;;7.80;99.90;;;;;;5048204;28;19923;-65
2023/04/30 01:29:15;;;;;;;;;;;7.90;99.90;;;;;;5044912;28;19913;-64
2023/04/30 01:31:44;;;;;;;;;;;7.80;99.90;;;;;;5051384;28;19920;-65
2023/04/30 01:34:10;;;;;;;;;;;7.80;99.90;;;;;;5048396;28;19921;-64
2023/04/30 01:36:48;;;;;;;;;;;7.80;99.90;;;;;;5046052;28;19917;-65
2023/04/30 01:39:22;;;;;;;;;;;7.80;99.90;;;;;;5049074;28;19952;-66
2023/04/30 01:42:05;;;;;;;;;;;7.70;99.90;;;;;;5050890;28;19913;-69
2023/04/30 01:44:49;;;;;;;;;;;7.80;99.90;;;;;;5049239;28;19924;-65
2023/04/30 01:47:29;;;;;;;;;;;7.70;99.90;;;;;;5045148;28;20085;-64
2023/04/30 01:50:04;;;;;;;;;;;7.70;99.90;;;;;;5049324;28;20004;-65
2023/04/30 01:52:48;;;;;;;;;;;7.70;99.90;;;;;;5043277;28;19982;-65
2023/04/30 01:55:18;;;;;;;;;;;7.70;99.90;;;;;;5038018;28;20327;-65
2023/04/30 01:57:51;;;;;;;;;;;7.60;99.90;;;;;;5049886;28;19927;-66
2023/04/30 02:00:16;;;;;;;;;;;7.60;99.90;;;;;;5049046;28;20387;-66
2023/04/30 02:02:42;;;;;;;;;;;7.50;99.90;;;;;;5042838;28;19913;-65
2023/04/30 02:05:08;;;;;;;;;;;7.60;99.90;;;;;;5042729;28;19913;-66
2023/04/30 02:07:43;;;;;;;;;;;7.50;99.90;;;;;;5048425;28;20364;-66
2023/04/30 02:10:10;;;;;;;;;;;7.60;99.90;;;;;;5047732;28;19952;-65
2023/04/30 02:12:36;;;;;;;;;;;7.50;99.90;;;;;;5045099;28;19913;-65
2023/04/30 02:15:02;;;;;;;;;;;7.50;99.90;;;;;;5039789;28;20083;-65
2023/04/30 02:17:28;;;;;;;;;;;7.40;99.90;;;;;;5045091;28;20015;-66
2023/04/30 02:19:53;;;;;;;;;;;7.40;99.90;;;;;;5047153;28;20372;-65
2023/04/30 02:22:19;;;;;;;;;;;7.30;99.90;;;;;;5047786;28;19917;-66
2023/04/30 02:24:44;;;;;;;;;;;7.10;99.90;;;;;;5042871;28;19913;-66
2023/04/30 02:27:10;;;;;;;;;;;7.10;99.90;;;;;;5043349;28;20278;-64
2023/04/30 02:29:36;;;;;;;;;;;7.10;99.90;;;;;;5041899;28;19917;-66
2023/04/30 02:32:01;;;;;;;;;;;7.10;99.90;;;;;;5034559;28;19913;-64
2023/04/30 02:34:27;;;;;;;;;;;7.10;99.90;;;;;;5038485;28;19920;-65
2023/04/30 02:36:52;;;;;;;;;;;7.10;99.90;;;;;;5035872;28;19921;-65
2023/04/30 02:39:18;;;;;;;;;;;7.00;99.90;;;;;;5040971;28;19920;-65
2023/04/30 02:41:43;;;;;;;;;;;7.00;99.90;;;;;;5040945;28;20382;-65
2023/04/30 02:44:09;;;;;;;;;;;7.00;99.90;;;;;;5039624;28;20393;-65
2023/04/30 02:46:35;;;;;;;;;;;7.00;99.90;;;;;;5038474;28;20419;-65
2023/04/30 02:49:00;;;;;;;;;;;7.10;99.90;;;;;;5043588;28;20311;-65
2023/04/30 02:51:27;;;;;;;;;;;7.00;99.90;;;;;;5056454;28;19912;-65
2023/04/30 02:53:52;;;;;;;;;;;7.10;99.90;;;;;;5049612;28;19919;-66
2023/04/30 02:56:18;;;;;;;;;;;7.00;99.90;;;;;;5038124;28;19913;-65
2023/04/30 02:58:44;;;;;;;;;;;7.00;99.90;;;;;;5045236;28;19924;-65
2023/04/30 03:01:09;;;;;;;;;;;7.00;99.90;;;;;;5032817;28;19913;-65
2023/04/30 03:03:35;;;;;;;;;;;7.00;99.90;;;;;;5047386;28;19912;-65
2023/04/30 03:06:00;;;;;;;;;;;7.00;99.90;;;;;;5047169;28;19921;-65
2023/04/30 03:08:26;;;;;;;;;;;7.10;99.90;;;;;;5042476;28;20351;-65
2023/04/30 03:10:52;;;;;;;;;;;7.10;99.90;;;;;;5049403;28;20396;-65
2023/04/30 03:13:17;;;;;;;;;;;7.20;99.90;;;;;;5039928;28;19913;-65
2023/04/30 03:15:43;;;;;;;;;;;7.20;99.90;;;;;;5036734;28;19912;-65
2023/04/30 03:18:09;;;;;;;;;;;7.30;99.90;;;;;;5043167;28;19925;-65
2023/04/30 03:20:35;;;;;;;;;;;7.30;99.90;;;;;;5040420;28;19924;-65
2023/04/30 03:23:00;;;;;;;;;;;7.30;99.90;;;;;;5047952;28;19916;-65
2023/04/30 03:25:26;;;;;;;;;;;7.30;99.90;;;;;;5044929;28;19919;-64
2023/04/30 03:27:51;;;;;;;;;;;7.30;99.90;;;;;;5044855;28;19934;-65
2023/04/30 03:30:17;;;;;;;;;;;7.30;99.90;;;;;;5039025;28;19913;-66
2023/04/30 03:32:43;;;;;;;;;;;7.30;99.90;;;;;;5036453;28;20271;-66
2023/04/30 03:35:08;;;;;;;;;;;7.30;99.90;;;;;;5043393;28;19966;-66
2023/04/30 03:37:34;;;;;;;;;;;7.30;99.90;;;;;;5047384;28;19917;-66
2023/04/30 03:40:00;;;;;;;;;;;7.30;99.90;;;;;;5048234;28;19916;-65
2023/04/30 03:42:25;;;;;;;;;;;7.30;99.90;;;;;;5039806;28;19913;-65
2023/04/30 03:44:51;;;;;;;;;;;7.30;99.90;;;;;;5038188;28;20019;-66
2023/04/30 03:47:16;;;;;;;;;;;7.40;99.90;;;;;;5046325;28;19923;-64
2023/04/30 03:49:42;;;;;;;;;;;7.40;99.90;;;;;;5043892;28;19952;-65
2023/04/30 03:52:07;;;;;;;;;;;7.40;99.90;;;;;;5052823;28;19974;-65
2023/04/30 03:54:33;;;;;;;;;;;7.40;99.90;;;;;;5043704;28;20315;-65
2023/04/30 03:56:59;;;;;;;;;;;7.40;99.90;;;;;;5047292;28;19913;-66
2023/04/30 03:59:24;;;;;;;;;;;7.40;99.90;;;;;;5047229;28;19925;-65
2023/04/30 04:01:50;;;;;;;;;;;7.40;99.90;;;;;;5042397;28;19919;-65
2023/04/30 04:04:16;;;;;;;;;;;7.40;99.90;;;;;;5041024;28;20406;-65
2023/04/30 04:06:42;;;;;;;;;;;7.40;99.90;;;;;;5044883;28;20276;-64
2023/04/30 04:09:07;;;;;;;;;;;7.30;99.90;;;;;;5044617;28;19912;-65
2023/04/30 04:11:33;;;;;;;;;;;7.30;99.90;;;;;;5038203;28;19935;-66
2023/04/30 04:13:59;;;;;;;;;;;7.10;99.90;;;;;;5046192;28;19917;-66
2023/04/30 04:16:25;;;;;;;;;;;7.10;99.90;;;;;;5038635;28;19916;-66
2023/04/30 04:18:51;;;;;;;;;;;7.00;99.90;;;;;;5050570;28;19928;-65
2023/04/30 04:21:17;;;;;;;;;;;7.00;99.90;;;;;;5048413;28;20249;-64
2023/04/30 04:23:42;;;;;;;;;;;6.90;99.90;;;;;;5051430;28;19966;-65
2023/04/30 04:26:09;;;;;;;;;;;6.80;99.90;;;;;;5051544;28;19913;-64
2023/04/30 04:28:35;;;;;;;;;;;6.80;99.90;;;;;;5043795;28;19912;-64
2023/04/30 04:31:02;;;;;;;;;;;6.80;99.90;;;;;;5051779;28;19917;-65
2023/04/30 04:33:28;;;;;;;;;;;6.80;99.90;;;;;;5050283;28;19967;-65
2023/04/30 04:35:53;;;;;;;;;;;6.90;99.90;;;;;;5052746;28;19917;-65
2023/04/30 04:38:19;;;;;;;;;;;6.90;99.90;;;;;;5050326;28;19925;-65
2023/04/30 04:40:54;;;;;;;;;;;6.80;99.90;;;;;;5049880;28;20327;-66
2023/04/30 04:43:20;;;;;;;;;;;6.70;99.90;;;;;;5050293;28;19920;-66
2023/04/30 04:45:46;;;;;;;;;;;6.70;99.90;;;;;;5052347;28;20323;-65
2023/04/30 04:48:12;;;;;;;;;;;6.80;99.90;;;;;;5050914;28;19963;-66
2023/04/30 04:50:38;;;;;;;;;;;6.80;99.90;;;;;;5049190;28;19964;-64
2023/04/30 04:53:03;;;;;;;;;;;6.80;99.90;;;;;;5051911;28;19927;-67
2023/04/30 04:55:29;;;;;;;;;;;6.70;99.90;;;;;;5045927;28;19971;-65
2023/04/30 04:57:55;;;;;;;;;;;6.70;99.90;;;;;;5049933;28;20011;-66
2023/04/30 05:00:21;;;;;;;;;;;6.70;99.90;;;;;;5042664;28;19920;-65
2023/04/30 05:02:48;;;;;;;;;;;6.70;99.90;;;;;;5051485;28;19913;-65
2023/04/30 05:05:13;;;;;;;;;;;6.70;99.90;;;;;;5044277;28;19920;-66
2023/04/30 05:07:39;;;;;;;;;;;6.70;99.90;;;;;;5044082;28;19913;-66
2023/04/30 05:10:05;;;;;;;;;;;6.80;99.90;;;;;;5044295;28;19928;-65
2023/04/30 05:12:31;;;;;;;;;;;6.70;99.90;;;;;;5040910;28;19921;-66
2023/04/30 05:14:56;;;;;;;;;;;6.70;99.90;;;;;;5049826;28;20284;-66
2023/04/30 05:17:22;;;;;;;;;;;6.70;99.90;;;;;;5044973;28;19913;-66
2023/04/30 05:19:49;;;;;;;;;;;6.70;99.90;;;;;;5051463;28;19917;-65
2023/04/30 05:22:15;;;;;;;;;;;6.70;99.90;;;;;;5046064;28;19916;-64
2023/04/30 05:24:40;;;;;;;;;;;6.80;99.90;;;;;;5046059;28;20323;-65
2023/04/30 05:27:06;;;;;;;;;;;6.90;99.90;;;;;;5042162;28;19959;-66
2023/04/30 05:29:32;;;;;;;;;;;7.00;99.90;;;;;;5049651;28;20434;-65
2023/04/30 05:31:57;;;;;;;;;;;7.00;99.90;;;;;;5051384;28;19982;-66
2023/04/30 05:34:23;;;;;;;;;;;7.00;99.90;;;;;;5048510;28;19966;-65
2023/04/30 05:36:49;;;;;;;;;;;7.10;99.90;;;;;;5051650;28;20015;-66
2023/04/30 05:39:14;;;;;;;;;;;7.10;99.90;;;;;;5049900;28;19974;-66
2023/04/30 05:41:40;;;;;;;;;;;7.20;99.90;;;;;;5051117;28;20279;-66
2023/04/30 05:44:05;;;;;;;;;;;7.20;99.90;;;;;;5043651;28;19925;-65
2023/04/30 05:46:31;;;;;;;;;;;7.30;99.90;;;;;;5041550;28;20407;-65
2023/04/30 05:48:57;;;;;;;;;;;7.30;99.90;;;;;;5046175;28;20434;-66
2023/04/30 05:51:22;;;;;;;;;;;7.30;99.90;;;;;;5040076;28;19913;-66
2023/04/30 05:53:48;;;;;;;;;;;7.30;99.90;;;;;;5045433;28;20301;-65
2023/04/30 05:56:13;;;;;;;;;;;7.30;99.90;;;;;;5038878;28;19920;-61
2023/04/30 05:58:39;;;;;;;;;;;7.40;99.90;;;;;;5044920;28;20397;-64
2023/04/30 06:01:05;;;;;;;;;;;7.40;99.90;;;;;;5043862;28;19919;-66
2023/04/30 06:03:31;;;;;;;;;;;7.40;99.90;;;;;;5047931;28;19935;-66
2023/04/30 06:05:56;;;;;;;;;;;7.40;99.90;;;;;;5046356;28;19916;-67
2023/04/30 06:08:22;;;;;;;;;;;7.40;99.90;;;;;;5040402;28;20413;-65
2023/04/30 06:10:48;;;;;;;;;;;7.50;99.90;;;;;;5039040;28;19913;-66
2023/04/30 06:13:13;;;;;;;;;;;7.60;99.90;;;;;;5046445;28;19913;-65
2023/04/30 06:15:40;;;;;;;;;;;7.60;99.90;;;;;;5043249;28;20004;-66
2023/04/30 06:18:06;;;;;;;;;;;7.70;99.90;;;;;;5040015;28;19928;-64
2023/04/30 06:20:31;;;;;;;;;;;7.60;99.90;;;;;;5044006;28;20379;-65
2023/04/30 06:22:58;;;;;;;;;;;7.60;99.90;;;;;;5048233;28;19920;-65
2023/04/30 06:25:25;;;;;;;;;;;7.60;99.90;;;;;;5030819;28;19952;-64
2023/04/30 06:27:52;;;;;;;;;;;7.70;99.90;;;;;;5043794;28;19913;-66
2023/04/30 06:30:18;;;;;;;;;;;7.70;99.90;;;;;;5034905;28;19913;-66
2023/04/30 06:32:44;;;;;;;;;;;7.70;99.90;;;;;;5040718;28;19928;-65
2023/04/30 06:35:09;;;;;;;;;;;7.80;99.90;;;;;;5048214;28;19919;-65
2023/04/30 06:37:36;;;;;;;;;;;7.90;99.90;;;;;;5044369;28;20268;-66
2023/04/30 06:40:06;;;;;;;;;;;8.00;99.90;;;;;;5045862;28;20017;-66
2023/04/30 06:42:33;;;;;;;;;;;8.10;99.90;;;;;;5044816;28;19916;-65
2023/04/30 06:45:00;;;;;;;;;;;8.20;99.90;;;;;;5042339;28;20392;-64
2023/04/30 06:47:26;;;;;;;;;;;8.20;99.90;;;;;;5045705;28;19917;-65
2023/04/30 06:49:51;;;;;;;;;;;8.30;99.90;;;;;;5049739;28;19943;-66
2023/04/30 06:52:17;;;;;;;;;;;8.30;99.90;;;;;;5044837;28;19913;-65
2023/04/30 06:54:42;;;;;;;;;;;8.40;99.90;;;;;;5049188;28;20412;-66
2023/04/30 06:57:08;;;;;;;;;;;8.50;99.90;;;;;;5046623;28;20372;-67
2023/04/30 06:59:34;;;;;;;;;;;8.60;99.90;;;;;;5036601;28;19925;-65
2023/04/30 07:01:59;;;;;;;;;;;8.70;99.90;;;;;;5049546;28;19913;-66
2023/04/30 07:04:26;;;;;;;;;;;8.80;99.90;;;;;;5044032;28;19917;-65
2023/04/30 07:06:51;;;;;;;;;;;8.90;99.90;;;;;;5049000;28;20104;-66
2023/04/30 07:09:17;;;;;;;;;;;9.00;99.90;;;;;;5039062;28;19920;-64
2023/04/30 07:11:44;;;;;;;;;;;9.20;99.90;;;;;;5037783;28;19917;-66
2023/04/30 07:14:09;;;;;;;;;;;9.30;99.90;;;;;;5046887;28;19960;-66
2023/04/30 07:16:35;;;;;;;;;;;9.40;99.90;;;;;;5046633;28;19948;-66
2023/04/30 07:19:00;;;;;;;;;;;9.50;99.90;;;;;;5044011;28;20341;-66
2023/04/30 07:21:26;;;;;;;;;;;9.70;99.90;;;;;;5047341;28;20012;-66
2023/04/30 07:23:52;;;;;;;;;;;9.90;99.90;;;;;;5045932;28;19917;-65
2023/04/30 07:26:17;;;;;;;;;;;10.10;99.90;;;;;;5049286;28;19935;-66
2023/04/30 07:28:48;;;;;;;;;;;10.10;99.90;;;;;;5049838;28;20399;-65
2023/04/30 07:31:14;;;;;;;;;;;10.30;99.90;;;;;;5045181;28;19913;-64
2023/04/30 07:33:40;;;;;;;;;;;10.50;99.90;;;;;;5048743;28;19962;-65
2023/04/30 07:36:05;;;;;;;;;;;10.60;99.90;;;;;;5047313;28;19916;-64
2023/04/30 07:38:31;;;;;;;;;;;10.70;99.90;;;;;;5041415;28;19921;-66
2023/04/30 07:40:57;;;;;;;;;;;10.90;99.90;;;;;;5045713;28;19913;-65
2023/04/30 07:43:22;;;;;;;;;;;11.10;99.90;;;;;;5045741;28;19913;-68
2023/04/30 07:45:48;;;;;;;;;;;11.20;99.90;;;;;;5052018;28;20349;-66
2023/04/30 07:48:15;;;;;;;;;;;11.30;99.90;;;;;;5043380;28;19925;-66
2023/04/30 07:50:40;;;;;;;;;;;11.40;99.90;;;;;;5050630;28;20003;-65
2023/04/30 07:53:08;;;;;;;;;;;11.60;99.90;;;;;;5051380;28;19952;-66
2023/04/30 07:55:33;;;;;;;;;;;11.70;99.90;;;;;;5048054;28;19913;-66
2023/04/30 07:58:01;;;;;;;;;;;11.80;99.90;;;;;;5046568;28;19990;-66
2023/04/30 08:00:28;;;;;;;;;;;12.00;99.90;;;;;;5051429;28;20074;-65
2023/04/30 08:02:54;;;;;;;;;;;12.10;99.90;;;;;;5042086;28;19916;-65
2023/04/30 08:05:20;;;;;;;;;;;12.20;99.90;;;;;;5046026;28;19912;-66
2023/04/30 08:07:45;;;;;;;;;;;12.30;99.90;;;;;;5043425;28;20384;-66
2023/04/30 08:10:11;;;;;;;;;;;12.40;99.90;;;;;;5043820;28;19913;-66
2023/04/30 08:12:36;;;;;;;;;;;12.50;99.90;;;;;;5040533;28;19917;-65
2023/04/30 08:15:03;;;;;;;;;;;12.60;99.90;;;;;;5050821;28;19924;-66
2023/04/30 08:17:29;;;;;;;;;;;12.80;99.90;;;;;;5039344;28;19917;-66
2023/04/30 08:19:55;;;;;;;;;;;12.90;99.90;;;;;;5046571;28;19919;-66
2023/04/30 08:22:21;;;;;;;;;;;13.00;99.90;;;;;;5040411;28;19913;-65
2023/04/30 08:24:47;;;;;;;;;;;13.10;99.90;;;;;;5045058;28;19913;-65
2023/04/30 08:27:12;;;;;;;;;;;13.20;99.90;;;;;;5042196;28;19983;-65
2023/04/30 08:29:38;;;;;;;;;;;13.30;99.90;;;;;;5047004;28;19919;-66
2023/04/30 08:32:04;;;;;;;;;;;13.40;99.90;;;;;;5052467;28;19924;-66
2023/04/30 08:34:30;;;;;;;;;;;13.40;99.90;;;;;;5037432;28;19959;-65
2023/04/30 08:36:56;;;;;;;;;;;13.60;99.90;;;;;;5045976;28;19913;-66
2023/04/30 08:39:21;;;;;;;;;;;13.70;99.90;;;;;;5043335;28;19931;-66
2023/04/30 08:41:51;;;;;;;;;;;13.90;99.90;;;;;;5045046;28;20369;-66
2023/04/30 08:44:20;;;;;;;;;;;14.10;99.90;;;;;;5036808;28;20312;-65
2023/04/30 08:46:46;;;;;;;;;;;14.20;99.90;;;;;;5047077;28;19978;-66
2023/04/30 08:49:12;;;;;;;;;;;14.50;99.90;;;;;;5047623;28;19924;-66
2023/04/30 08:51:38;;;;;;;;;;;14.60;99.90;;;;;;5045408;28;19920;-66
2023/04/30 08:54:04;;;;;;;;;;;14.70;99.90;;;;;;5044203;28;19959;-66
2023/04/30 08:56:32;;;;;;;;;;;14.80;99.90;;;;;;5049045;28;19920;-66
2023/04/30 08:58:57;;;;;;;;;;;14.90;99.90;;;;;;5050940;28;19921;-66
2023/04/30 09:01:24;;;;;;;;;;;15.10;99.90;;;;;;5039636;28;19920;-66
2023/04/30 09:03:49;;;;;;;;;;;15.50;99.90;;;;;;5050807;28;19913;-66
2023/04/30 09:06:15;;;;;;;;;;;15.60;99.90;;;;;;5049709;28;19913;-65
2023/04/30 09:08:48;;;;;;;;;;;15.80;99.90;;;;;;5049786;28;19913;-65
2023/04/30 09:11:21;;;;;;;;;;;15.90;99.90;;;;;;5048083;28;19923;-67
2023/04/30 09:13:48;;;;;;;;;;;16.20;99.90;;;;;;5050770;28;19923;-65
2023/04/30 09:16:13;;;;;;;;;;;16.30;99.90;;;;;;5033420;28;19921;-65
2023/04/30 09:18:40;;;;;;;;;;;16.30;99.90;;;;;;5043117;28;19920;-65
2023/04/30 09:21:07;;;;;;;;;;;16.40;99.90;;;;;;5045496;28;20283;-67
2023/04/30 09:23:33;;;;;;;;;;;16.60;99.90;;;;;;5040279;28;19920;-67
2023/04/30 09:25:59;;;;;;;;;;;16.50;99.90;;;;;;5042535;28;20017;-65
2023/04/30 09:28:27;;;;;;;;;;;16.50;99.90;;;;;;5044766;28;19950;-67
2023/04/30 09:30:54;;;;;;;;;;;16.70;99.90;;;;;;5045898;28;19913;-65
2023/04/30 09:33:20;;;;;;;;;;;16.90;99.90;;;;;;5047402;28;19913;-65
2023/04/30 09:35:45;;;;;;;;;;;17.00;99.90;;;;;;5041585;28;19995;-65
2023/04/30 09:38:27;;;;;;;;;;;16.90;99.90;;;;;;5042574;28;20019;-65
2023/04/30 09:40:53;;;;;;;;;;;16.90;99.90;;;;;;5038265;28;19913;-65
2023/04/30 09:43:19;;;;;;;;;;;17.00;99.90;;;;;;5041891;28;19966;-66
2023/04/30 09:45:51;;;;;;;;;;;17.10;99.90;;;;;;5042005;28;19931;-66
2023/04/30 09:48:19;;;;;;;;;;;17.20;99.90;;;;;;5045105;28;19913;-66
2023/04/30 09:50:46;;;;;;;;;;;17.20;99.90;;;;;;5040278;28;19912;-66
2023/04/30 09:53:16;;;;;;;;;;;17.40;99.90;;;;;;5040233;28;19913;-66
2023/04/30 09:55:43;;;;;;;;;;;17.50;99.90;;;;;;5040460;28;19945;-64
2023/04/30 09:58:09;;;;;;;;;;;17.70;99.90;;;;;;5043983;28;19917;-67
2023/04/30 10:00:35;;;;;;;;;;;17.90;99.90;;;;;;5044402;28;19966;-67
2023/04/30 10:03:04;;;;;;;;;;;17.90;99.90;;;;;;5045275;28;19912;-66
2023/04/30 10:05:31;;;;;;;;;;;18.20;99.90;;;;;;5042519;28;19912;-66
2023/04/30 10:07:57;;;;;;;;;;;18.20;99.90;;;;;;5048158;28;19978;-66
2023/04/30 10:10:25;;;;;;;;;;;17.90;99.90;;;;;;5042526;28;19986;-66
2023/04/30 10:12:53;;;;;;;;;;;17.80;99.90;;;;;;5043026;28;20222;-66
2023/04/30 10:15:27;;;;;;;;;;;17.50;99.90;;;;;;5033455;28;19913;-66
2023/04/30 10:17:55;;;;;;;;;;;17.50;99.90;;;;;;5040202;28;19972;-66
2023/04/30 10:20:20;;;;;;;;;;;17.60;99.90;;;;;;5042775;28;19924;-66
2023/04/30 10:22:46;;;;;;;;;;;17.70;99.90;;;;;;5046472;28;19912;-65
2023/04/30 10:25:13;;;;;;;;;;;17.80;99.90;;;;;;5044495;28;19976;-66
2023/04/30 10:27:39;;;;;;;;;;;18.00;99.90;;;;;;5044005;28;19920;-66
2023/04/30 10:30:05;;;;;;;;;;;17.90;99.90;;;;;;5040674;28;19921;-66
2023/04/30 10:32:35;;;;;;;;;;;18.00;99.90;;;;;;5044234;28;19996;-65
2023/04/30 10:35:09;;;;;;;;;;;17.90;99.90;;;;;;5041594;28;19913;-65
2023/04/30 10:37:37;;;;;;;;;;;17.80;99.90;;;;;;5031788;28;20285;-66
2023/04/30 10:40:04;;;;;;;;;;;17.80;99.90;;;;;;5044270;28;19917;-67
2023/04/30 10:42:29;;;;;;;;;;;17.60;99.90;;;;;;5043272;28;19951;-65
2023/04/30 10:44:55;;;;;;;;;;;17.50;99.90;;;;;;5044098;28;19963;-66
2023/04/30 10:47:26;;;;;;;;;;;17.50;99.90;;;;;;5040563;28;19960;-66
2023/04/30 10:50:00;;;;;;;;;;;18.00;99.90;;;;;;5036311;28;19920;-66
2023/04/30 10:52:27;;;;;;;;;;;18.10;99.90;;;;;;5043122;28;19999;-67
2023/04/30 10:54:53;;;;;;;;;;;18.00;99.90;;;;;;5041232;28;19982;-66
2023/04/30 10:57:19;;;;;;;;;;;18.20;99.90;;;;;;5039245;28;20360;-66
2023/04/30 11:00:04;;;;;;;;;;;18.20;99.90;;;;;;5046756;28;19927;-66
2023/04/30 11:02:39;;;;;;;;;;;18.10;99.90;;;;;;5042179;28;20315;-65
2023/04/30 11:05:05;;;;;;;;;;;18.00;99.90;;;;;;5044214;28;19913;-65
2023/04/30 11:07:30;;;;;;;;;;;18.20;99.90;;;;;;5042556;28;19928;-66
2023/04/30 11:09:56;;;;;;;;;;;18.40;99.90;;;;;;5046772;28;20292;-65
2023/04/30 11:12:27;;;;;;;;;;;18.50;99.90;;;;;;5043228;28;19916;-65
2023/04/30 11:14:59;;;;;;;;;;;18.60;99.90;;;;;;5042205;28;19917;-66
2023/04/30 11:17:25;;;;;;;;;;;18.40;99.90;;;;;;5040182;28;19920;-66
2023/04/30 11:19:52;;;;;;;;;;;18.60;99.90;;;;;;5039303;28;19917;-65
2023/04/30 11:22:18;;;;;;;;;;;18.60;99.90;;;;;;5044685;28;20030;-67
2023/04/30 11:24:50;;;;;;;;;;;18.50;99.90;;;;;;5031804;28;19948;-67
2023/04/30 11:27:19;;;;;;;;;;;19.00;99.90;;;;;;5027168;28;19913;-65
2023/04/30 11:29:46;;;;;;;;;;;19.40;99.90;;;;;;5048824;28;19956;-66
2023/04/30 11:32:11;;;;;;;;;;;19.70;99.90;;;;;;5049082;28;19925;-66
2023/04/30 11:34:37;;;;;;;;;;;19.60;99.90;;;;;;5047416;28;20361;-65
2023/04/30 11:37:02;;;;;;;;;;;19.70;99.90;;;;;;5049646;28;19917;-67
2023/04/30 11:39:28;;;;;;;;;;;19.50;99.90;;;;;;5038817;28;19943;-67
2023/04/30 11:41:54;;;;;;;;;;;19.60;99.90;;;;;;5044331;28;19912;-67
2023/04/30 11:44:26;;;;;;;;;;;19.90;99.90;;;;;;5038002;28;19921;-67
2023/04/30 11:46:52;;;;;;;;;;;20.00;99.90;;;;;;5048595;28;19933;-66
2023/04/30 11:49:19;;;;;;;;;;;20.00;99.90;;;;;;5038177;28;19920;-66
2023/04/30 11:51:47;;;;;;;;;;;20.00;99.90;;;;;;5048083;28;19999;-67
2023/04/30 11:54:13;;;;;;;;;;;19.90;99.90;;;;;;5034942;28;20415;-67
2023/04/30 11:56:38;;;;;;;;;;;19.90;99.90;;;;;;5035889;28;19917;-67
2023/04/30 11:59:11;;;;;;;;;;;19.80;99.90;;;;;;5036889;28;19967;-66
2023/04/30 12:01:36;;;;;;;;;;;20.10;99.90;;;;;;5035178;28;19920;-66
2023/04/30 12:04:03;;;;;;;;;;;19.90;99.90;;;;;;5047629;28;19917;-68
2023/04/30 12:06:29;;;;;;;;;;;20.10;99.90;;;;;;5044148;28;20372;-67
2023/04/30 12:08:56;;;;;;;;;;;19.80;99.90;;;;;;5042290;28;19920;-67
2023/04/30 12:11:26;;;;;;;;;;;20.10;99.90;;;;;;5043769;28;20003;-67
2023/04/30 12:13:52;;;;;;;;;;;20.30;99.90;;;;;;5043990;28;19913;-66
2023/04/30 12:16:18;;;;;;;;;;;20.10;99.90;;;;;;5043389;28;20003;-67
2023/04/30 12:18:44;;;;;;;;;;;20.30;99.90;;;;;;5045695;28;20058;-67
2023/04/30 12:21:10;;;;;;;;;;;20.40;99.90;;;;;;5049163;28;19913;-67
2023/04/30 12:23:36;;;;;;;;;;;20.50;99.90;;;;;;5044517;28;20365;-67
2023/04/30 12:26:02;;;;;;;;;;;20.80;99.90;;;;;;5048989;28;19912;-66
2023/04/30 12:28:27;;;;;;;;;;;20.70;99.90;;;;;;5046394;28;20364;-66
2023/04/30 12:30:53;;;;;;;;;;;21.00;99.90;;;;;;5041950;28;19917;-69
2023/04/30 12:33:18;;;;;;;;;;;21.00;99.90;;;;;;5048524;28;19916;-67
2023/04/30 12:35:44;;;;;;;;;;;21.10;99.90;;;;;;5047042;28;19960;-66
2023/04/30 12:38:10;;;;;;;;;;;21.30;99.90;;;;;;5053130;28;19920;-68
2023/04/30 12:40:36;;;;;;;;;;;21.50;99.90;;;;;;5045283;28;19913;-66
2023/04/30 12:43:02;;;;;;;;;;;21.90;99.90;;;;;;5039811;28;19914;-66
2023/04/30 12:45:46;;;;;;;;;;;22.20;99.90;;;;;;5049256;28;19921;-66
2023/04/30 12:48:12;;;;;;;;;;;21.90;99.90;;;;;;5049141;28;19913;-67
2023/04/30 12:50:38;;;;;;;;;;;21.70;99.90;;;;;;5049523;28;19919;-67
2023/04/30 12:53:04;;;;;;;;;;;22.00;99.90;;;;;;5050931;28;19955;-67
2023/04/30 12:55:30;;;;;;;;;;;22.20;99.90;;;;;;5046356;28;19920;-66
2023/04/30 12:58:13;;;;;;;;;;;22.10;99.90;;;;;;5051323;28;19962;-67
2023/04/30 13:00:57;;;;;;;;;;;22.30;99.30;;;;;;5048306;28;20400;-67
2023/04/30 13:03:23;;;;;;;;;;;22.20;98.40;;;;;;5041674;28;19924;-66
2023/04/30 13:05:50;;;;;;;;;;;22.20;98.90;;;;;;5039911;28;19913;-66
2023/04/30 13:08:16;;;;;;;;;;;22.10;97.50;;;;;;5045547;28;19920;-68
2023/04/30 13:10:42;;;;;;;;;;;22.20;98.00;;;;;;5044355;28;19913;-68
2023/04/30 13:13:09;;;;;;;;;;;22.00;97.20;;;;;;5041606;28;19920;-69
2023/04/30 13:15:34;;;;;;;;;;;22.00;95.70;;;;;;5043427;28;19924;-68
2023/04/30 13:18:00;;;;;;;;;;;22.30;94.30;;;;;;5042863;28;19925;-65
2023/04/30 13:20:26;;;;;;;;;;;22.40;94.50;;;;;;5036159;28;20002;-66
2023/04/30 13:22:52;;;;;;;;;;;22.40;94.60;;;;;;5050097;28;19917;-65
2023/04/30 13:25:18;;;;;;;;;;;22.50;94.30;;;;;;5049590;28;19944;-66
2023/04/30 13:27:44;;;;;;;;;;;22.30;92.90;;;;;;5044232;28;19985;-65
2023/04/30 13:30:10;;;;;;;;;;;22.30;91.80;;;;;;5052507;28;19916;-67
2023/04/30 13:32:36;;;;;;;;;;;22.20;91.20;;;;;;5050563;28;20288;-66
2023/04/30 13:35:04;;;;;;;;;;;22.20;91.70;;;;;;5050536;28;19913;-65
2023/04/30 13:37:30;;;;;;;;;;;22.10;94.00;;;;;;5042541;28;20008;-65
2023/04/30 13:39:56;;;;;;;;;;;22.20;93.50;;;;;;5051702;28;19916;-65
2023/04/30 13:42:24;;;;;;;;;;;21.90;92.00;;;;;;5049398;28;20015;-65
2023/04/30 13:44:51;;;;;;;;;;;21.80;93.50;;;;;;5049350;28;19921;-65
2023/04/30 13:47:16;;;;;;;;;;;21.40;94.30;;;;;;5049288;28;19919;-66
2023/04/30 13:49:42;;;;;;;;;;;21.40;93.40;;;;;;5051405;28;19914;-65
2023/04/30 13:52:07;;;;;;;;;;;21.30;93.10;;;;;;5050481;28;19917;-66
2023/04/30 13:54:33;;;;;;;;;;;21.60;90.40;;;;;;5028148;28;19956;-67
2023/04/30 13:56:58;;;;;;;;;;;21.80;90.10;;;;;;5020527;28;19947;-67
2023/04/30 13:59:24;;;;;;;;;;;21.50;91.50;;;;;;5035691;28;20019;-67
2023/04/30 14:01:50;;;;;;;;;;;21.60;91.70;;;;;;5038113;28;19952;-65
2023/04/30 14:04:15;;;;;;;;;;;21.40;91.20;;;;;;5031514;28;19921;-66
2023/04/30 14:06:42;;;;;;;;;;;21.40;92.20;;;;;;5034650;28;19913;-67
2023/04/30 14:09:07;;;;;;;;;;;21.60;92.00;;;;;;5039485;28;20357;-66
2023/04/30 14:11:33;;;;;;;;;;;21.60;89.50;;;;;;5046001;28;20358;-66
2023/04/30 14:13:58;;;;;;;;;;;21.50;91.10;;;;;;5049503;28;19919;-66
2023/04/30 14:16:24;;;;;;;;;;;21.20;90.30;;;;;;5049118;28;19974;-65
2023/04/30 14:18:50;;;;;;;;;;;21.10;90.90;;;;;;5047205;28;19966;-65
2023/04/30 14:21:15;;;;;;;;;;;21.00;91.10;;;;;;5001860;28;19917;-66